createdAt,value
2022-12-11T00:00:26.877Z,100.00
2022-12-11T00:02:54.277Z,100.00
2022-12-11T00:05:21.421Z,100.00
2022-12-11T00:07:48.542Z,100.00
2022-12-11T00:10:15.938Z,100.00
2022-12-11T00:12:43.006Z,100.00
2022-12-11T00:15:10.613Z,100.00
2022-12-11T00:17:38.558Z,100.00
2022-12-11T00:20:06.135Z,100.00
2022-12-11T00:22:33.285Z,100.00
2022-12-11T00:25:00.636Z,100.00
2022-12-11T00:27:27.805Z,100.00
2022-12-11T00:29:54.866Z,100.00
2022-12-11T00:32:22.373Z,100.00
2022-12-11T00:34:49.454Z,100.00
2022-12-11T00:37:17.435Z,100.00
2022-12-11T00:39:45.580Z,100.00
2022-12-11T00:42:12.732Z,100.00
2022-12-11T00:44:39.798Z,100.00
2022-12-11T00:47:08.133Z,100.00
2022-12-11T00:49:35.180Z,100.00
2022-12-11T00:52:02.242Z,100.00
2022-12-11T00:54:29.612Z,100.00
2022-12-11T00:56:56.670Z,100.00
2022-12-11T00:59:23.734Z,100.00
2022-12-11T01:01:51.903Z,100.00
2022-12-11T01:04:19.049Z,100.00
2022-12-11T01:06:46.115Z,100.00
2022-12-11T01:09:31.767Z,100.00
2022-12-11T01:11:58.874Z,100.00
2022-12-11T01:14:26.693Z,100.00
2022-12-11T01:16:53.795Z,100.00
2022-12-11T01:19:20.894Z,100.00
2022-12-11T01:21:48.233Z,100.00
2022-12-11T01:24:15.276Z,100.00
2022-12-11T01:26:42.332Z,100.00
2022-12-11T01:29:09.668Z,100.00
2022-12-11T01:31:37.838Z,100.00
2022-12-11T01:34:04.910Z,100.00
2022-12-11T01:36:32.282Z,100.00
2022-12-11T01:38:59.424Z,100.00
2022-12-11T01:41:26.628Z,100.00
2022-12-11T01:44:03.080Z,100.00
2022-12-11T01:46:31.870Z,100.00
2022-12-11T01:49:00.478Z,100.00
2022-12-11T01:51:29.586Z,100.00
2022-12-11T01:54:03.680Z,100.00
2022-12-11T01:56:31.257Z,100.00
2022-12-11T01:59:03.015Z,100.00
2022-12-11T02:01:47.086Z,100.00
2022-12-11T02:04:15.679Z,100.00
2022-12-11T02:06:45.513Z,100.00
2022-12-11T02:09:15.300Z,100.00
2022-12-11T02:12:06.899Z,100.00
2022-12-11T02:14:43.382Z,100.00
2022-12-11T02:17:17.607Z,100.00
2022-12-11T02:19:48.565Z,100.00
2022-12-11T02:22:54.558Z,100.00
2022-12-11T02:25:47.118Z,100.00
2022-12-11T02:28:21.322Z,100.00
2022-12-11T02:30:57.781Z,100.00
2022-12-11T02:33:37.205Z,100.00
2022-12-11T02:36:05.280Z,100.00
2022-12-11T02:38:35.765Z,100.00
2022-12-11T02:41:03.034Z,100.00
2022-12-11T02:43:31.018Z,100.00
2022-12-11T02:45:59.581Z,100.00
2022-12-11T02:48:26.686Z,100.00
2022-12-11T02:50:56.853Z,100.00
2022-12-11T02:53:26.783Z,100.00
2022-12-11T02:56:02.980Z,100.00
2022-12-11T02:58:32.860Z,100.00
2022-12-11T03:01:00.144Z,100.00
2022-12-11T03:03:29.563Z,100.00
2022-12-11T03:05:57.098Z,100.00
2022-12-11T03:08:24.293Z,100.00
2022-12-11T03:10:51.460Z,100.00
2022-12-11T03:13:20.924Z,100.00
2022-12-11T03:16:06.491Z,100.00
2022-12-11T03:18:52.726Z,100.00
2022-12-11T03:21:49.394Z,100.00
2022-12-11T03:24:30.716Z,100.00
2022-12-11T03:27:11.094Z,100.00
2022-12-11T03:29:42.442Z,100.00
2022-12-11T03:32:13.715Z,100.00
2022-12-11T03:35:21.586Z,100.00
2022-12-11T03:37:50.785Z,100.00
2022-12-11T03:40:20.331Z,100.00
2022-12-11T03:42:50.714Z,100.00
2022-12-11T03:45:19.547Z,100.00
2022-12-11T03:47:47.581Z,100.00
2022-12-11T03:50:16.771Z,100.00
2022-12-11T03:52:46.394Z,100.00
2022-12-11T03:55:16.046Z,100.00
2022-12-11T03:57:43.700Z,100.00
2022-12-11T04:00:14.621Z,100.00
2022-12-11T04:02:42.467Z,100.00
2022-12-11T04:05:10.935Z,100.00
2022-12-11T04:07:38.169Z,100.00
2022-12-11T04:10:07.140Z,100.00
2022-12-11T04:12:34.288Z,100.00
2022-12-11T04:15:04.200Z,100.00
2022-12-11T04:17:54.178Z,100.00
2022-12-11T04:20:40.054Z,100.00
2022-12-11T04:23:31.032Z,100.00
2022-12-11T04:26:12.214Z,100.00
2022-12-11T04:28:40.126Z,100.00
2022-12-11T04:31:11.431Z,100.00
2022-12-11T04:33:38.513Z,100.00
2022-12-11T04:36:06.383Z,100.00
2022-12-11T04:38:33.512Z,100.00
2022-12-11T04:41:06.597Z,100.00
2022-12-11T04:43:34.053Z,100.00
2022-12-11T04:46:09.878Z,100.00
2022-12-11T04:48:37.989Z,100.00
2022-12-11T04:51:05.688Z,100.00
2022-12-11T04:53:32.851Z,100.00
2022-12-11T04:56:00.213Z,100.00
2022-12-11T04:58:27.571Z,100.00
2022-12-11T05:00:57.273Z,100.00
2022-12-11T05:03:24.654Z,100.00
2022-12-11T05:05:53.107Z,100.00
2022-12-11T05:08:21.139Z,100.00
2022-12-11T05:11:01.594Z,100.00
2022-12-11T05:13:29.643Z,100.00
2022-12-11T05:15:57.345Z,100.00
2022-12-11T05:18:24.984Z,100.00
2022-12-11T05:21:02.273Z,100.00
2022-12-11T05:23:29.934Z,100.00
2022-12-11T05:26:02.457Z,100.00
2022-12-11T05:28:31.090Z,100.00
2022-12-11T05:30:59.932Z,100.00
2022-12-11T05:33:27.606Z,100.00
2022-12-11T05:35:55.024Z,100.00
2022-12-11T05:38:22.665Z,100.00
2022-12-11T05:40:58.016Z,100.00
2022-12-11T05:43:26.224Z,100.00
2022-12-11T05:45:53.508Z,100.00
2022-12-11T05:48:20.626Z,100.00
2022-12-11T05:51:01.348Z,100.00
2022-12-11T05:53:29.220Z,100.00
2022-12-11T05:56:02.499Z,100.00
2022-12-11T05:58:29.578Z,100.00
2022-12-11T06:00:56.945Z,100.00
2022-12-11T06:03:24.362Z,100.00
2022-12-11T06:05:51.693Z,100.00
2022-12-11T06:08:18.965Z,100.00
2022-12-11T06:10:47.951Z,100.00
2022-12-11T06:13:15.634Z,100.00
2022-12-11T06:15:42.848Z,100.00
2022-12-11T06:18:10.675Z,100.00
2022-12-11T06:20:37.906Z,100.00
2022-12-11T06:23:05.018Z,100.00
2022-12-11T06:25:32.368Z,100.00
2022-12-11T06:27:59.627Z,100.00
2022-12-11T06:30:37.380Z,100.00
2022-12-11T06:33:06.990Z,100.00
2022-12-11T06:35:38.736Z,100.00
2022-12-11T06:38:10.669Z,100.00
2022-12-11T06:40:38.345Z,100.00
2022-12-11T06:43:05.396Z,100.00
2022-12-11T06:45:32.819Z,100.00
2022-12-11T06:47:59.952Z,100.00
2022-12-11T06:50:27.008Z,100.00
2022-12-11T06:52:56.249Z,100.00
2022-12-11T06:55:23.446Z,100.00
2022-12-11T06:57:50.539Z,100.00
2022-12-11T07:00:17.941Z,100.00
2022-12-11T07:02:44.987Z,100.00
2022-12-11T07:05:12.411Z,100.00
2022-12-11T07:07:39.961Z,100.00
2022-12-11T07:10:08.510Z,100.00
2022-12-11T07:12:36.664Z,100.00
2022-12-11T07:15:05.084Z,100.00
2022-12-11T07:17:32.238Z,100.00
2022-12-11T07:19:59.312Z,100.00
2022-12-11T07:22:26.713Z,100.00
2022-12-11T07:24:53.767Z,100.00
2022-12-11T07:27:20.906Z,99.79
2022-12-11T07:29:48.253Z,100.00
2022-12-11T07:32:15.385Z,100.00
2022-12-11T07:34:45.026Z,98.84
2022-12-11T07:37:15.977Z,99.96
2022-12-11T07:39:43.032Z,97.61
2022-12-11T07:42:10.085Z,97.65
2022-12-11T07:44:37.504Z,97.83
2022-12-11T07:47:04.683Z,97.49
2022-12-11T07:49:31.739Z,97.65
2022-12-11T07:51:59.155Z,96.88
2022-12-11T07:54:26.209Z,97.33
2022-12-11T07:56:54.103Z,96.22
2022-12-11T07:59:21.617Z,96.57
2022-12-11T08:01:48.746Z,95.83
2022-12-11T08:04:16.245Z,95.46
2022-12-11T08:06:43.552Z,94.76
2022-12-11T08:09:20.767Z,94.23
2022-12-11T08:11:50.502Z,94.01
2022-12-11T08:14:18.289Z,94.51
2022-12-11T08:16:45.459Z,94.48
2022-12-11T08:19:13.288Z,93.73
2022-12-11T08:21:40.538Z,93.87
2022-12-11T08:24:08.633Z,94.39
2022-12-11T08:26:36.346Z,93.70
2022-12-11T08:29:03.802Z,93.78
2022-12-11T08:31:33.385Z,93.44
2022-12-11T08:34:03.364Z,93.50
2022-12-11T08:36:30.553Z,93.59
2022-12-11T08:38:57.852Z,94.37
2022-12-11T08:41:30.042Z,92.81
2022-12-11T08:43:58.670Z,92.85
2022-12-11T08:46:28.352Z,93.05
2022-12-11T08:48:56.355Z,92.01
2022-12-11T08:51:26.152Z,92.39
2022-12-11T08:53:58.215Z,93.00
2022-12-11T08:56:26.287Z,92.30
2022-12-11T08:58:54.081Z,93.56
2022-12-11T09:01:24.215Z,92.88
2022-12-11T09:03:52.785Z,91.79
2022-12-11T09:06:22.258Z,91.97
2022-12-11T09:08:52.915Z,92.26
2022-12-11T09:11:23.433Z,92.27
2022-12-11T09:13:51.067Z,92.00
2022-12-11T09:16:20.570Z,92.42
2022-12-11T09:18:49.861Z,92.01
2022-12-11T09:21:19.113Z,91.24
2022-12-11T09:23:46.854Z,90.77
2022-12-11T09:26:16.435Z,91.68
2022-12-11T09:28:46.715Z,92.58
2022-12-11T09:31:17.084Z,90.90
2022-12-11T09:33:44.372Z,91.11
2022-12-11T09:36:12.139Z,90.76
2022-12-11T09:38:39.691Z,90.80
2022-12-11T09:41:33.205Z,90.72
2022-12-11T09:44:17.944Z,90.99
2022-12-11T09:46:45.736Z,90.75
2022-12-11T09:49:34.242Z,91.31
2022-12-11T09:52:14.347Z,90.44
2022-12-11T09:54:58.048Z,91.32
2022-12-11T09:57:34.243Z,90.12
2022-12-11T10:00:12.791Z,91.66
2022-12-11T10:03:07.258Z,91.12
2022-12-11T10:06:04.229Z,90.76
2022-12-11T10:08:56.913Z,91.19
2022-12-11T10:11:36.795Z,90.36
2022-12-11T10:14:18.332Z,91.03
2022-12-11T10:16:47.925Z,91.23
2022-12-11T10:19:19.639Z,91.39
2022-12-11T10:21:47.218Z,89.86
2022-12-11T10:24:50.110Z,91.11
2022-12-11T10:27:19.900Z,89.60
2022-12-11T10:30:18.935Z,90.67
2022-12-11T10:32:50.758Z,90.49
2022-12-11T10:35:43.836Z,90.26
2022-12-11T10:38:20.403Z,89.97
2022-12-11T10:41:02.905Z,90.42
2022-12-11T10:43:38.874Z,91.45
2022-12-11T10:46:07.540Z,91.00
2022-12-11T10:48:34.937Z,90.80
2022-12-11T10:51:05.580Z,90.18
2022-12-11T10:53:34.011Z,90.01
2022-12-11T10:56:01.965Z,89.37
2022-12-11T10:58:33.908Z,89.17
2022-12-11T11:01:10.691Z,89.98
2022-12-11T11:03:51.888Z,90.34
2022-12-11T11:06:20.660Z,89.58
2022-12-11T11:08:50.801Z,89.47
2022-12-11T11:11:25.896Z,89.21
2022-12-11T11:14:07.277Z,88.93
2022-12-11T11:16:38.338Z,89.18
2022-12-11T11:19:06.487Z,88.27
2022-12-11T11:21:35.109Z,88.46
2022-12-11T11:24:02.176Z,87.76
2022-12-11T11:27:04.257Z,88.06
2022-12-11T11:29:31.254Z,88.05
2022-12-11T11:32:14.776Z,87.96
2022-12-11T11:34:42.030Z,88.44
2022-12-11T11:37:25.200Z,87.73
2022-12-11T11:39:57.690Z,87.82
2022-12-11T11:42:38.132Z,87.47
2022-12-11T11:45:25.160Z,87.28
2022-12-11T11:48:09.458Z,87.28
2022-12-11T11:50:41.413Z,87.76
2022-12-11T11:53:13.854Z,86.88
2022-12-11T11:55:55.748Z,86.74
2022-12-11T11:58:27.705Z,85.76
2022-12-11T12:00:55.289Z,87.17
2022-12-11T12:03:24.305Z,88.26
2022-12-11T12:06:15.853Z,86.63
2022-12-11T12:09:09.168Z,86.51
2022-12-11T12:12:00.978Z,86.38
2022-12-11T12:14:54.734Z,85.66
2022-12-11T12:17:38.777Z,86.73
2022-12-11T12:20:28.498Z,86.32
2022-12-11T12:23:14.379Z,86.51
2022-12-11T12:25:54.737Z,85.77
2022-12-11T12:28:49.025Z,85.60
2022-12-11T12:31:47.544Z,86.28
2022-12-11T12:34:29.629Z,86.05
2022-12-11T12:37:28.041Z,86.70
2022-12-11T12:40:23.957Z,86.74
2022-12-11T12:43:19.809Z,85.56
2022-12-11T12:45:53.832Z,85.14
2022-12-11T12:48:21.395Z,85.13
2022-12-11T12:50:49.584Z,85.13
2022-12-11T12:53:20.136Z,84.94
2022-12-11T12:55:48.451Z,86.01
2022-12-11T12:58:34.053Z,87.24
2022-12-11T13:01:07.408Z,86.31
2022-12-11T13:03:37.831Z,84.25
2022-12-11T13:06:08.698Z,84.87
2022-12-11T13:08:46.055Z,85.13
2022-12-11T13:11:16.172Z,84.90
2022-12-11T13:13:51.596Z,85.42
2022-12-11T13:16:27.033Z,84.86
2022-12-11T13:18:54.642Z,84.93
2022-12-11T13:21:42.699Z,84.50
2022-12-11T13:24:12.840Z,84.24
2022-12-11T13:26:40.742Z,83.77
2022-12-11T13:29:28.301Z,85.28
2022-12-11T13:32:09.105Z,85.11
2022-12-11T13:34:44.713Z,84.45
2022-12-11T13:37:27.308Z,83.88
2022-12-11T13:39:54.964Z,83.90
2022-12-11T13:42:28.329Z,82.86
2022-12-11T13:44:55.608Z,83.98
2022-12-11T13:47:23.985Z,84.76
2022-12-11T13:49:54.958Z,84.44
2022-12-11T13:52:25.884Z,85.12
2022-12-11T13:54:54.330Z,84.66
2022-12-11T13:57:23.256Z,83.92
2022-12-11T13:59:53.400Z,83.56
2022-12-11T14:02:26.415Z,85.07
2022-12-11T14:04:57.276Z,84.34
2022-12-11T14:07:28.839Z,84.93
2022-12-11T14:10:08.061Z,84.41
2022-12-11T14:12:35.645Z,83.58
2022-12-11T14:15:04.806Z,84.43
2022-12-11T14:17:34.557Z,84.38
2022-12-11T14:20:07.306Z,84.23
2022-12-11T14:22:34.934Z,83.47
2022-12-11T14:25:14.794Z,83.23
2022-12-11T14:27:48.425Z,83.23
2022-12-11T14:30:22.151Z,83.19
2022-12-11T14:32:50.346Z,83.83
2022-12-11T14:35:34.132Z,83.14
2022-12-11T14:38:27.632Z,82.79
2022-12-11T14:41:02.843Z,83.17
2022-12-11T14:43:40.337Z,83.93
2022-12-11T14:46:14.298Z,83.14
2022-12-11T14:48:45.536Z,82.88
2022-12-11T14:51:15.114Z,82.81
2022-12-11T14:53:45.549Z,82.69
2022-12-11T14:56:21.511Z,83.33
2022-12-11T14:59:09.210Z,83.45
2022-12-11T15:01:37.469Z,83.54
2022-12-11T15:04:22.556Z,83.35
2022-12-11T15:06:51.970Z,83.97
2022-12-11T15:09:21.838Z,83.54
2022-12-11T15:11:49.369Z,83.84
2022-12-11T15:14:18.885Z,83.39
2022-12-11T15:16:47.782Z,83.13
2022-12-11T15:19:31.762Z,82.39
2022-12-11T15:22:07.096Z,84.07
2022-12-11T15:24:34.053Z,83.54
2022-12-11T15:27:01.500Z,82.84
2022-12-11T15:29:36.100Z,83.05
2022-12-11T15:32:09.382Z,83.46
2022-12-11T15:34:57.910Z,82.14
2022-12-11T15:37:26.476Z,83.05
2022-12-11T15:39:54.770Z,82.19
2022-12-11T15:42:28.028Z,82.61
2022-12-11T15:44:56.250Z,83.37
2022-12-11T15:47:29.660Z,82.84
2022-12-11T15:50:02.463Z,82.10
2022-12-11T15:52:29.954Z,82.59
2022-12-11T15:54:57.523Z,82.78
2022-12-11T15:57:24.749Z,82.76
2022-12-11T15:59:53.430Z,81.93
2022-12-11T16:02:20.864Z,82.22
2022-12-11T16:04:48.239Z,81.93
2022-12-11T16:07:19.124Z,82.55
2022-12-11T16:09:46.526Z,82.69
2022-12-11T16:12:14.377Z,82.56
2022-12-11T16:14:42.204Z,81.79
2022-12-11T16:17:10.197Z,81.81
2022-12-11T16:19:37.581Z,81.45
2022-12-11T16:22:05.472Z,82.39
2022-12-11T16:24:33.112Z,81.34
2022-12-11T16:27:00.700Z,83.30
2022-12-11T16:29:27.945Z,81.95
2022-12-11T16:31:55.328Z,81.52
2022-12-11T16:34:28.854Z,82.16
2022-12-11T16:36:57.918Z,82.25
2022-12-11T16:39:25.491Z,82.04
2022-12-11T16:41:52.587Z,82.55
2022-12-11T16:44:21.297Z,81.60
2022-12-11T16:46:48.944Z,81.96
2022-12-11T16:49:16.068Z,82.48
2022-12-11T16:51:44.025Z,83.30
2022-12-11T16:54:11.780Z,83.24
2022-12-11T16:56:39.203Z,83.63
2022-12-11T16:59:09.064Z,83.40
2022-12-11T17:01:36.486Z,83.17
2022-12-11T17:04:03.645Z,82.85
2022-12-11T17:06:30.902Z,83.66
2022-12-11T17:08:58.382Z,83.33
2022-12-11T17:11:26.229Z,82.50
2022-12-11T17:13:59.131Z,83.22
2022-12-11T17:16:29.383Z,83.33
2022-12-11T17:18:58.539Z,83.48
2022-12-11T17:21:25.755Z,82.84
2022-12-11T17:23:53.138Z,83.90
2022-12-11T17:26:20.446Z,84.48
2022-12-11T17:28:47.686Z,83.09
2022-12-11T17:31:17.371Z,82.80
2022-12-11T17:33:46.027Z,83.39
2022-12-11T17:36:17.541Z,83.90
2022-12-11T17:38:45.357Z,84.61
2022-12-11T17:41:20.052Z,83.13
2022-12-11T17:43:49.567Z,84.88
2022-12-11T17:46:17.006Z,83.40
2022-12-11T17:48:44.330Z,84.03
2022-12-11T17:51:13.716Z,83.42
2022-12-11T17:53:40.815Z,83.22
2022-12-11T17:56:08.687Z,83.74
2022-12-11T17:58:38.682Z,83.37
2022-12-11T18:01:08.306Z,84.06
2022-12-11T18:03:36.458Z,84.30
2022-12-11T18:06:10.579Z,84.46
2022-12-11T18:08:38.023Z,84.63
2022-12-11T18:11:12.379Z,84.15
2022-12-11T18:13:39.620Z,84.45
2022-12-11T18:16:33.447Z,84.25
2022-12-11T18:19:00.899Z,84.17
2022-12-11T18:21:31.967Z,84.15
2022-12-11T18:23:59.713Z,84.10
2022-12-11T18:26:27.799Z,84.10
2022-12-11T18:28:55.040Z,84.50
2022-12-11T18:31:22.444Z,83.98
2022-12-11T18:33:50.358Z,84.75
2022-12-11T18:36:18.650Z,84.96
2022-12-11T18:38:47.031Z,85.09
2022-12-11T18:41:15.459Z,85.64
2022-12-11T18:43:42.766Z,85.85
2022-12-11T18:46:14.143Z,85.52
2022-12-11T18:48:43.127Z,85.71
2022-12-11T18:51:15.570Z,85.76
2022-12-11T18:53:43.338Z,86.19
2022-12-11T18:56:15.606Z,85.91
2022-12-11T18:58:43.324Z,86.42
2022-12-11T19:01:20.353Z,86.68
2022-12-11T19:03:47.978Z,87.74
2022-12-11T19:06:17.960Z,86.53
2022-12-11T19:08:45.666Z,86.25
2022-12-11T19:11:17.836Z,86.14
2022-12-11T19:13:45.257Z,85.96
2022-12-11T19:16:21.207Z,85.91
2022-12-11T19:18:51.110Z,86.56
2022-12-11T19:21:18.918Z,86.08
2022-12-11T19:23:46.208Z,85.88
2022-12-11T19:26:18.457Z,85.58
2022-12-11T19:28:46.915Z,85.87
2022-12-11T19:31:17.067Z,86.16
2022-12-11T19:33:44.520Z,86.06
2022-12-11T19:36:14.000Z,86.29
2022-12-11T19:38:42.730Z,86.57
2022-12-11T19:41:26.984Z,85.93
2022-12-11T19:43:56.161Z,85.72
2022-12-11T19:46:23.907Z,85.47
2022-12-11T19:48:57.074Z,85.33
2022-12-11T19:51:27.158Z,85.26
2022-12-11T19:53:54.394Z,85.75
2022-12-11T19:56:21.510Z,85.89
2022-12-11T19:58:49.862Z,85.46
2022-12-11T20:01:21.400Z,85.89
2022-12-11T20:03:49.675Z,85.35
2022-12-11T20:06:16.812Z,85.94
2022-12-11T20:08:45.504Z,86.55
2022-12-11T20:11:17.947Z,85.28
2022-12-11T20:13:49.385Z,85.33
2022-12-11T20:16:20.032Z,85.15
2022-12-11T20:18:57.226Z,85.35
2022-12-11T20:21:24.957Z,85.70
2022-12-11T20:23:51.985Z,85.68
2022-12-11T20:26:23.386Z,86.14
2022-12-11T20:28:52.063Z,85.77
2022-12-11T20:31:24.485Z,86.18
2022-12-11T20:33:53.258Z,86.12
2022-12-11T20:36:21.795Z,87.12
2022-12-11T20:38:49.632Z,87.77
2022-12-11T20:41:19.898Z,87.15
2022-12-11T20:43:48.999Z,87.97
2022-12-11T20:46:17.756Z,87.89
2022-12-11T20:48:45.464Z,88.02
2022-12-11T20:51:18.603Z,88.32
2022-12-11T20:53:56.463Z,88.23
2022-12-11T20:56:24.723Z,88.02
2022-12-11T20:58:52.236Z,88.69
2022-12-11T21:01:23.588Z,88.97
2022-12-11T21:03:52.247Z,88.71
2022-12-11T21:06:21.964Z,88.49
2022-12-11T21:08:49.225Z,88.58
2022-12-11T21:11:18.186Z,89.72
2022-12-11T21:13:45.574Z,89.91
2022-12-11T21:16:12.789Z,89.60
2022-12-11T21:18:40.007Z,89.59
2022-12-11T21:21:07.486Z,89.91
2022-12-11T21:23:34.605Z,90.57
2022-12-11T21:26:03.168Z,90.81
2022-12-11T21:28:35.489Z,90.38
2022-12-11T21:31:05.974Z,90.05
2022-12-11T21:33:34.202Z,90.60
2022-12-11T21:36:01.499Z,90.44
2022-12-11T21:38:29.214Z,90.80
2022-12-11T21:40:56.969Z,90.53
2022-12-11T21:43:24.898Z,91.20
2022-12-11T21:46:01.419Z,90.50
2022-12-11T21:48:29.045Z,90.52
2022-12-11T21:51:03.774Z,90.75
2022-12-11T21:53:31.145Z,90.61
2022-12-11T21:55:58.209Z,89.80
2022-12-11T21:58:25.247Z,89.08
2022-12-11T22:00:52.699Z,89.06
2022-12-11T22:03:20.117Z,88.00
2022-12-11T22:05:47.201Z,88.47
2022-12-11T22:08:15.403Z,88.44
2022-12-11T22:10:42.789Z,89.24
2022-12-11T22:13:09.821Z,88.50
2022-12-11T22:15:36.969Z,88.65
2022-12-11T22:18:04.454Z,90.67
2022-12-11T22:20:31.698Z,91.09
2022-12-11T22:22:58.754Z,90.49
2022-12-11T22:25:26.157Z,90.96
2022-12-11T22:27:53.215Z,92.08
2022-12-11T22:30:20.300Z,91.96
2022-12-11T22:32:48.443Z,92.20
2022-12-11T22:35:15.682Z,91.47
2022-12-11T22:37:42.874Z,91.24
2022-12-11T22:40:10.580Z,91.56
2022-12-11T22:42:37.652Z,91.13
2022-12-11T22:45:05.057Z,90.04
2022-12-11T22:47:32.713Z,90.80
2022-12-11T22:49:59.795Z,91.54
2022-12-11T22:52:26.852Z,91.83
2022-12-11T22:54:54.207Z,92.04
2022-12-11T22:57:21.267Z,92.42
2022-12-11T22:59:48.785Z,92.24
2022-12-11T23:02:16.561Z,89.68
2022-12-11T23:04:43.696Z,90.39
2022-12-11T23:07:10.748Z,91.93
2022-12-11T23:09:38.127Z,90.84
2022-12-11T23:12:05.497Z,90.83
2022-12-11T23:14:32.564Z,91.24
2022-12-11T23:17:00.117Z,90.75
2022-12-11T23:19:27.322Z,89.67
2022-12-11T23:21:54.407Z,90.57
2022-12-11T23:24:22.477Z,90.48
2022-12-11T23:26:49.527Z,90.20
2022-12-11T23:29:16.617Z,89.67
2022-12-11T23:31:43.974Z,89.87
2022-12-11T23:34:11.071Z,89.94
2022-12-11T23:36:38.569Z,89.80
2022-12-11T23:39:05.966Z,89.87
2022-12-11T23:41:33.038Z,88.45
2022-12-11T23:44:00.088Z,89.16
2022-12-11T23:46:27.526Z,89.39
2022-12-11T23:48:54.950Z,87.00
2022-12-11T23:51:24.180Z,86.74
2022-12-11T23:53:51.870Z,85.88
2022-12-11T23:56:27.196Z,85.90
2022-12-11T23:58:55.398Z,85.75
